Current | Forecast
Updated: 10:30 PM CEST on April 30, 2017
Observed at Girona, Spain
Temperature 14°C
Humidity 88%
Dew Point 12°C
Wind South at 13 km/h
Pressure 1009 hPa (Steady)
Conditions Rain
Visibility 10.0 kilometers
UV 0 out of 16
Clouds Scattered Clouds (SCT) : 609 m
Overcast (OVC) : 1524 m
Yesterday's Maximum 18°C
Yesterday's Minimum 2°C approx.
Yesterday's Heating Degree Days 15 approx.
Sunrise6:47 AM CEST
Sunset8:46 PM CEST
Moon Rise10:20 AM CEST
Moon Set12:17 AM CEST
Moon PhaseMoon Phase
Waxing Crescent
Raw METARMETAR LEGE 302030Z 17007KT 9999 RA SCT020CB OVC050 14/12 Q1009


Monday
. High: 87° F.
Tuesday
. High: 80° F.
Wednesday
. High: 73° F.
Thursday
. High: 71° F.
Friday
. High: 75° F.
Saturday
. High: 82° F.
Sunday
. High: 78° F.
Monday
. High: 87° F.

Click here for Marine Information
Scientific forecaster discussion (NWS)

Units: English | Metric

Find the Weather for any City, State or Zipcode, or Country:

U.S. State List | Severe Weather | Tropical Storms | Ski Conditions
United States | Canada | Central America | South America | Asia | Europe | Australia | Africa | Islands

Weather Underground

© Copyright 2017
The Weather Company, LLC